Flight Track Log - Related Links

Times and Time Zones

All times are in EDT time to prevent confusion due to time zone crossing. See the GJS3697 flight status page for this flight to view local times or setup timezone preferences in your user account.

Time Position Orientation Groundspeed Altitude Reporting Facility
EDT Latitude Longitude Course Direction KTS MPH feet Rate Location/Type
Wed 07:02:52 PM 29.9739 -90.2539 North 155 178 600  Level Houston Center
Wed 07:03:28 PM 29.9492 -90.2644 200° South 163 188 1,600 1,263 Climbing Houston Center
Wed 07:03:49 PM 29.9428 -90.2678 204° Southwest 169 194 1,800 1,973 Climbing Houston Center
Wed 07:04:41 PM 29.9364 -90.3250 263° West 264 304 4,000 2,496 Climbing Houston Center
Wed 07:05:42 PM 30.0103 -90.3533 342° North 294 338 6,500 2,373 Climbing Houston Center
Wed 07:06:55 PM 30.0969 -90.3894 340° North 282 325 9,300 2,044 Climbing Houston Center
Wed 07:07:00 PM 30.4980 -90.4500 North  Level FlightAware Approximate
Wed 07:07:57 PM 30.1772 -90.4175 343° North 294 338 11,100  Level Houston Center
Wed 07:08:00 PM 30.6112 -90.4414 North  Level FlightAware Approximate
Wed 07:08:59 PM 30.2706 -90.4531 342° North 341 392 12,600  Level Houston Center
Wed 07:10:01 PM 30.3700 -90.4878 343° North 367 422 14,300 1,968 Climbing Houston Center
Wed 07:11:04 PM 30.4942 -90.5297 344° North 383 441 16,700 2,064 Climbing Houston Center
Wed 07:12:06 PM 30.6000 -90.5583 347° North 389 448 18,600 1,548 Climbing Houston Center
Wed 07:13:08 PM 30.7022 -90.5875 346° North 382 440 19,900 1,065 Climbing Houston Center
Wed 07:14:10 PM 30.8103 -90.5831 North 391 450 20,800 1,065 Climbing Houston Center
Wed 07:15:12 PM 30.9261 -90.5700 North 410 472 22,100 1,065 Climbing Houston Center
Wed 07:16:14 PM 31.0394 -90.5572 North 409 471 23,000 823 Climbing Houston Center
Wed 07:17:16 PM 31.1583 -90.5442 North 421 484 23,800 871 Climbing Houston Center
Wed 07:18:18 PM 31.3078 -90.5278 North 439 505 24,800 968 Climbing Houston Center
Wed 07:19:20 PM 31.4331 -90.5131 North 454 522 25,800 968 Climbing Houston Center
Wed 07:20:22 PM 31.5606 -90.4994 North 458 527 26,800 960 Climbing Houston Center
Wed 07:21:25 PM 31.6894 -90.4856 North 462 532 27,800 960 Climbing Houston Center
Wed 07:22:27 PM 31.8208 -90.4697 North 469 540 28,800 1,096 Climbing Houston Center
Wed 07:23:20 PM 31.9578 -90.4528 North 469 540 29,900 1,115 Climbing Memphis Center
Wed 07:24:20 PM 32.0894 -90.4383 North 469 540 30,900 1,000 Climbing Memphis Center
Wed 07:25:20 PM 32.2189 -90.4236 North 464 534 31,900 1,000 Climbing Memphis Center
Wed 07:26:20 PM 32.3503 -90.4089 North 464 534 32,900 1,000 Climbing Memphis Center
Wed 07:27:20 PM 32.4819 -90.3942 North 464 534 33,900 1,000 Climbing Memphis Center
Wed 07:28:20 PM 32.6114 -90.3769 North 464 534 34,900 1,000 Climbing Memphis Center
Wed 07:29:20 PM 32.7367 -90.3647 North 459 528 35,900 1,000 Climbing Memphis Center
Wed 07:30:20 PM 32.8619 -90.3497 North 459 528 36,900 550 Climbing Memphis Center
Wed 07:31:20 PM 32.9872 -90.3350 North 459 528 37,000 50 Climbing Memphis Center
Wed 07:32:20 PM 33.1186 -90.3200 North 464 534 37,000  Level Memphis Center
Wed 07:33:20 PM 33.2544 -90.3050 North 469 540 37,000  Level Memphis Center
Wed 07:34:20 PM 33.3858 -90.2875 North 474 545 37,000  Level Memphis Center
Wed 07:35:20 PM 33.5214 -90.2700 North 479 551 37,000  Level Memphis Center
Wed 07:36:20 PM 33.6508 -90.2450 North 479 551 37,000  Level Memphis Center
Wed 07:37:20 PM 33.7844 -90.2197 North 479 551 37,000  Level Memphis Center
Wed 07:38:20 PM 33.9117 -90.1944 North 472 543 37,000  Level Memphis Center
Wed 07:39:20 PM 34.0453 -90.1717 North 467 537 37,000  Level Memphis Center
Wed 07:40:20 PM 34.1767 -90.1464 North 467 537 37,000 250 Level Memphis Center
Wed 07:41:20 PM 34.3061 -90.1208 North 473 544 37,500 700 Climbing Memphis Center
Wed 07:42:20 PM 34.4333 -90.0978 North 467 537 38,400 750 Climbing Memphis Center
Wed 07:43:20 PM 34.5606 -90.0747 North 460 529 39,000 300 Climbing Memphis Center
Wed 07:44:20 PM 34.6731 -90.0542 North 454 522 39,000  Level Memphis Center
Wed 07:45:20 PM 34.8025 -90.0333 North 462 532 39,000  Level Memphis Center
Wed 07:46:20 PM 34.9381 -90.0050 10° North 482 555 39,000  Level Memphis Center
Wed 07:47:20 PM 35.0778 -89.9917 North 482 555 39,000  Level Memphis Center
Wed 07:48:20 PM 35.2050 -90.0014 356° North 458 527 39,000  Level Memphis Center
Wed 07:49:20 PM 35.3303 -90.0136 355° North 453 521 39,000  Level Memphis Center
Wed 07:50:20 PM 35.4553 -90.0231 356° North 447 514 39,000  Level Memphis Center
Wed 07:51:20 PM 35.5806 -90.0353 355° North 442 509 39,000  Level Memphis Center
Wed 07:52:20 PM 35.6953 -90.0478 355° North 444 511 39,000  Level Memphis Center
Wed 07:53:20 PM 35.8183 -90.0600 355° North 432 497 39,000  Level Memphis Center
Wed 07:54:20 PM 35.9436 -90.0750 354° North 438 504 39,000  Level Memphis Center
Wed 07:55:20 PM 36.0686 -90.0847 356° North 444 511 39,000  Level Memphis Center
Wed 07:56:20 PM 36.1917 -90.0972 355° North 444 511 39,000  Level Memphis Center
Wed 07:57:20 PM 36.3167 -90.1097 355° North 444 511 39,000  Level Memphis Center
Wed 07:58:20 PM 36.4378 -90.1222 355° North 444 511 39,000  Level Memphis Center
Wed 08:00:20 PM 36.6661 -90.1397 356° North 443 510 39,000  Level Kansas City Center
Wed 08:01:21 PM 36.7906 -90.1508 356° North 445 512 39,000  Level Kansas City Center
Wed 08:02:23 PM 36.9406 -90.1647 356° North 447 514 39,000  Level Kansas City Center
Wed 08:03:25 PM 37.0658 -90.1750 356° North 450 518 39,000  Level Kansas City Center
Wed 08:04:27 PM 37.1919 -90.1872 356° North 451 519 39,000  Level Kansas City Center
Wed 08:05:29 PM 37.3172 -90.1994 356° North 451 519 39,000 -390 Level Kansas City Center
Wed 08:06:30 PM 37.4258 -90.2322 347° North 447 514 38,200 -488 Descending Kansas City Center
Wed 08:07:32 PM 37.5567 -90.3056 336° Northwest 431 496 38,000 -98 Descending Kansas City Center
Wed 08:08:33 PM 37.6667 -90.3683 336° Northwest 432 497 38,000  Level Kansas City Center
Wed 08:09:35 PM 37.7761 -90.4325 335° Northwest 433 498 38,000  Level Kansas City Center
Wed 08:10:37 PM 37.8864 -90.4961 336° Northwest 434 499 38,000  Level Kansas City Center
Wed 08:11:39 PM 37.9972 -90.5606 335° Northwest 435 501 38,000  Level Kansas City Center
Wed 08:12:41 PM 38.1078 -90.6258 335° Northwest 436 502 38,000  Level Kansas City Center
Wed 08:13:42 PM 38.2194 -90.6900 336° Northwest 438 504 38,000  Level Kansas City Center
Wed 08:14:44 PM 38.3361 -90.7425 341° North 444 511 38,000  Level Kansas City Center
Wed 08:15:46 PM 38.4892 -90.7144 North 461 531 38,000  Level Kansas City Center
Wed 08:16:48 PM 38.6131 -90.6653 17° North 468 539 38,000 -439 Level Kansas City Center
Wed 08:17:49 PM 38.7392 -90.6161 17° North 472 543 37,100 -488 Descending Kansas City Center
Wed 08:18:51 PM 38.8622 -90.5669 17° North 467 537 37,000 -48 Descending Kansas City Center
Wed 08:19:53 PM 38.9903 -90.5122 18° North 458 527 37,000  Level Kansas City Center
Wed 08:20:55 PM 39.1119 -90.4617 18° North 456 525 37,000  Level Kansas City Center
Wed 08:21:57 PM 39.2342 -90.4114 18° North 459 528 37,000  Level Kansas City Center
Wed 08:22:58 PM 39.3581 -90.3600 18° North 464 534 37,000  Level Kansas City Center
Wed 08:24:00 PM 39.4808 -90.3078 18° North 465 535 37,000  Level Kansas City Center
Wed 08:25:02 PM 39.6311 -90.2458 18° North 469 540 37,000 -484 Level Kansas City Center
Wed 08:26:04 PM 39.7525 -90.1947 18° North 471 542 36,000 -1,073 Descending Kansas City Center
Wed 08:27:05 PM 39.8775 -90.1408 18° North 472 543 34,800 -1,226 Descending Kansas City Center
Wed 08:27:37 PM 39.9519 -90.1106 17° North 472 543 34,100 -1,149 Descending Chicago Center
Wed 08:28:39 PM 40.0747 -90.0586 18° North 467 537 33,000 -532 Descending Chicago Center
Wed 08:29:41 PM 40.1961 -90.0078 18° North 460 529 33,000 -387 Level Chicago Center
Wed 08:30:43 PM 40.3175 -89.9553 18° North 455 524 32,200 -871 Descending Chicago Center
Wed 08:31:45 PM 40.4217 -89.9100 18° North 413 475 31,200 -968 Descending Chicago Center
Wed 08:32:47 PM 40.5236 -89.8622 20° North 388 447 30,200 -968 Descending Chicago Center
Wed 08:33:49 PM 40.6500 -89.8081 18° North 395 455 29,200 -864 Descending Chicago Center
Wed 08:34:52 PM 40.7517 -89.7636 18° North 392 451 28,400 -672 Descending Chicago Center
Wed 08:35:54 PM 40.8581 -89.7211 17° North 390 449 27,800 -677 Descending Chicago Center
Wed 08:36:56 PM 40.9597 -89.6764 18° North 386 444 27,000 -1,306 Descending Chicago Center
Wed 08:37:58 PM 41.0761 -89.6242 19° North 395 455 25,100 -1,632 Descending Chicago Center
Wed 08:39:01 PM 41.1731 -89.5522 29° Northeast 418 481 23,600 -1,440 Descending Chicago Center
Wed 08:40:03 PM 41.2297 -89.4203 60° Northeast 414 476 22,100 -1,645 Descending Chicago Center
Wed 08:41:05 PM 41.2817 -89.2872 63° Northeast 407 468 20,200 -1,984 Descending Chicago Center
Wed 08:42:07 PM 41.3356 -89.1539 62° Northeast 393 452 18,000 -2,032 Descending Chicago Center
Wed 08:43:09 PM 41.3853 -89.0306 62° Northeast 383 441 16,000 -2,129 Descending Chicago Center
Wed 08:44:11 PM 41.4419 -88.8867 62° Northeast 370 426 13,600 -1,597 Descending Chicago Center
Wed 08:45:13 PM 41.4864 -88.7761 62° Northeast 345 397 12,700 -919 Descending Chicago Center
Wed 08:46:15 PM 41.5272 -88.6714 62° Northeast 325 374 11,700 -823 Descending Chicago Center
Wed 08:47:17 PM 41.5708 -88.5669 61° Northeast 327 376 11,000 -774 Descending Chicago Center
Wed 08:48:19 PM 41.6269 -88.4769 50° Northeast 319 367 10,100 -726 Descending Chicago Center
Wed 08:49:21 PM 41.6789 -88.3942 50° Northeast 293 337 9,500 -823 Descending Chicago Center
Wed 08:50:23 PM 41.7428 -88.3342 35° Northeast 250 288 8,400 -1,016 Descending Chicago Center
Wed 08:51:25 PM 41.8061 -88.3322 North 227 261 7,400 -816 Descending Chicago Center
Wed 08:52:28 PM 41.8661 -88.3319 360° North 217 250 6,700 -768 Descending Chicago Center
Wed 08:53:30 PM 41.9189 -88.3306 North 193 222 5,800 -774 Descending Chicago Center
Wed 08:54:32 PM 41.9494 -88.2708 55° Northeast 214 246 5,100 -629 Descending Chicago Center
Wed 08:55:34 PM 41.9628 -88.1975 76° East 207 238 4,500 -581 Descending Chicago Center

Login

Don't have an account? Register now (free) for customized features, flight alerts, and more!